Isle of South Uist, United Kingdom
Current Conditions -  °F | °C
As of 3:50 AM on Saturday 20 Dec 2014 (Local Time) from EGPL Reporting Station
Few Clouds Few Clouds  
Wind Chill: 32°   Ceiling: Unl
Heat Index: 43°   Visibility: 6mi
Dew Point: 39°   Wind: 32mph
Humidity: 87%   Direction: 300°WNW
Pressure: 29.85"   Gusts: NA
Location:  57.08°N, 7.3°W
Report Text: EGPL 200350Z AUTO 30028KT 9999 FEW042/// 06/04 Q1011
Loading
Personal Weather Stations






























Interactive Weather Map New forecast layout! Learn more

10-Day Weather Forecast

Advertisements
Track Severe Weather on mobile